sensor_id;sensor_type;location;lat;lon;timestamp;P1;durP1;ratioP1;P2;durP2;ratioP2
11305;SDS011;5708;50.660;6.778;2023-09-07T00:00:58;8.98;;;6.03;;
11305;SDS011;5708;50.660;6.778;2023-09-07T00:03:24;8.30;;;5.07;;
11305;SDS011;5708;50.660;6.778;2023-09-07T00:05:50;7.30;;;4.82;;
11305;SDS011;5708;50.660;6.778;2023-09-07T00:08:15;8.45;;;5.65;;
11305;SDS011;5708;50.660;6.778;2023-09-07T00:10:40;7.90;;;5.78;;
11305;SDS011;5708;50.660;6.778;2023-09-07T00:13:06;7.90;;;5.30;;
11305;SDS011;5708;50.660;6.778;2023-09-07T00:15:35;9.50;;;5.88;;
11305;SDS011;5708;50.660;6.778;2023-09-07T00:18:01;8.45;;;5.18;;
11305;SDS011;5708;50.660;6.778;2023-09-07T00:20:26;8.85;;;5.45;;
11305;SDS011;5708;50.660;6.778;2023-09-07T00:22:52;9.05;;;5.55;;
11305;SDS011;5708;50.660;6.778;2023-09-07T00:25:17;7.65;;;5.13;;
11305;SDS011;5708;50.660;6.778;2023-09-07T00:27:43;9.35;;;5.43;;
11305;SDS011;5708;50.660;6.778;2023-09-07T00:30:08;7.95;;;5.43;;
11305;SDS011;5708;50.660;6.778;2023-09-07T00:32:36;9.00;;;5.63;;
11305;SDS011;5708;50.660;6.778;2023-09-07T00:35:02;9.15;;;5.70;;
11305;SDS011;5708;50.660;6.778;2023-09-07T00:37:28;11.02;;;5.78;;
11305;SDS011;5708;50.660;6.778;2023-09-07T00:39:53;8.95;;;5.43;;
11305;SDS011;5708;50.660;6.778;2023-09-07T00:42:19;8.18;;;5.32;;
11305;SDS011;5708;50.660;6.778;2023-09-07T00:44:44;9.18;;;5.55;;
11305;SDS011;5708;50.660;6.778;2023-09-07T00:47:09;8.32;;;5.63;;
11305;SDS011;5708;50.660;6.778;2023-09-07T00:49:35;11.85;;;5.90;;
11305;SDS011;5708;50.660;6.778;2023-09-07T00:52:00;9.90;;;5.53;;
11305;SDS011;5708;50.660;6.778;2023-09-07T00:54:26;9.07;;;5.43;;
11305;SDS011;5708;50.660;6.778;2023-09-07T00:56:51;7.90;;;5.25;;
11305;SDS011;5708;50.660;6.778;2023-09-07T00:59:16;9.48;;;5.68;;
11305;SDS011;5708;50.660;6.778;2023-09-07T01:01:42;10.13;;;5.30;;
11305;SDS011;5708;50.660;6.778;2023-09-07T01:04:08;9.25;;;5.50;;
11305;SDS011;5708;50.660;6.778;2023-09-07T01:06:35;8.70;;;5.57;;
11305;SDS011;5708;50.660;6.778;2023-09-07T01:09:11;10.95;;;5.20;;
11305;SDS011;5708;50.660;6.778;2023-09-07T01:11:40;7.45;;;5.22;;
11305;SDS011;5708;50.660;6.778;2023-09-07T01:14:05;9.95;;;5.57;;
11305;SDS011;5708;50.660;6.778;2023-09-07T01:16:31;9.25;;;5.60;;
11305;SDS011;5708;50.660;6.778;2023-09-07T01:19:00;8.63;;;5.88;;
11305;SDS011;5708;50.660;6.778;2023-09-07T01:21:26;8.27;;;5.68;;
11305;SDS011;5708;50.660;6.778;2023-09-07T01:23:53;7.75;;;5.65;;
11305;SDS011;5708;50.660;6.778;2023-09-07T01:26:18;10.15;;;5.63;;
11305;SDS011;5708;50.660;6.778;2023-09-07T01:28:44;10.20;;;5.53;;
11305;SDS011;5708;50.660;6.778;2023-09-07T01:31:10;8.55;;;5.72;;
11305;SDS011;5708;50.660;6.778;2023-09-07T01:33:35;7.43;;;5.32;;
11305;SDS011;5708;50.660;6.778;2023-09-07T01:36:00;10.60;;;5.85;;
11305;SDS011;5708;50.660;6.778;2023-09-07T01:38:26;8.13;;;5.43;;
11305;SDS011;5708;50.660;6.778;2023-09-07T01:40:51;9.13;;;5.88;;
11305;SDS011;5708;50.660;6.778;2023-09-07T01:43:16;10.55;;;5.80;;
11305;SDS011;5708;50.660;6.778;2023-09-07T01:45:42;10.30;;;6.03;;
11305;SDS011;5708;50.660;6.778;2023-09-07T01:48:10;11.25;;;5.45;;
11305;SDS011;5708;50.660;6.778;2023-09-07T01:50:37;8.82;;;5.38;;
11305;SDS011;5708;50.660;6.778;2023-09-07T01:53:02;9.32;;;5.88;;
11305;SDS011;5708;50.660;6.778;2023-09-07T01:55:33;10.32;;;5.78;;
11305;SDS011;5708;50.660;6.778;2023-09-07T01:57:59;7.18;;;5.03;;
11305;SDS011;5708;50.660;6.778;2023-09-07T02:00:24;8.48;;;5.20;;
11305;SDS011;5708;50.660;6.778;2023-09-07T02:02:49;9.52;;;5.43;;
11305;SDS011;5708;50.660;6.778;2023-09-07T02:05:15;8.63;;;5.63;;
11305;SDS011;5708;50.660;6.778;2023-09-07T02:07:41;8.95;;;5.80;;
11305;SDS011;5708;50.660;6.778;2023-09-07T02:10:06;8.88;;;5.53;;
11305;SDS011;5708;50.660;6.778;2023-09-07T02:12:32;8.52;;;5.47;;
11305;SDS011;5708;50.660;6.778;2023-09-07T02:15:00;8.55;;;5.70;;
11305;SDS011;5708;50.660;6.778;2023-09-07T02:17:27;8.65;;;5.88;;
11305;SDS011;5708;50.660;6.778;2023-09-07T02:19:52;10.73;;;6.20;;
11305;SDS011;5708;50.660;6.778;2023-09-07T02:22:18;7.97;;;5.50;;
11305;SDS011;5708;50.660;6.778;2023-09-07T02:24:43;10.32;;;5.80;;
11305;SDS011;5708;50.660;6.778;2023-09-07T02:27:08;9.90;;;5.57;;
11305;SDS011;5708;50.660;6.778;2023-09-07T02:29:34;8.73;;;5.65;;
11305;SDS011;5708;50.660;6.778;2023-09-07T02:31:59;8.80;;;5.60;;
11305;SDS011;5708;50.660;6.778;2023-09-07T02:34:24;12.30;;;6.45;;
11305;SDS011;5708;50.660;6.778;2023-09-07T02:36:50;8.43;;;5.90;;
11305;SDS011;5708;50.660;6.778;2023-09-07T02:39:15;8.65;;;6.00;;
11305;SDS011;5708;50.660;6.778;2023-09-07T02:41:40;10.63;;;6.10;;
11305;SDS011;5708;50.660;6.778;2023-09-07T02:44:06;9.55;;;6.20;;
11305;SDS011;5708;50.660;6.778;2023-09-07T02:46:31;8.88;;;6.15;;
11305;SDS011;5708;50.660;6.778;2023-09-07T02:48:57;8.77;;;5.70;;
11305;SDS011;5708;50.660;6.778;2023-09-07T02:51:23;8.23;;;6.00;;
11305;SDS011;5708;50.660;6.778;2023-09-07T02:53:49;9.88;;;5.78;;
11305;SDS011;5708;50.660;6.778;2023-09-07T02:56:14;8.30;;;5.57;;
11305;SDS011;5708;50.660;6.778;2023-09-07T02:58:39;8.52;;;5.82;;
11305;SDS011;5708;50.660;6.778;2023-09-07T03:01:05;8.70;;;6.03;;
11305;SDS011;5708;50.660;6.778;2023-09-07T03:03:33;9.00;;;5.80;;
11305;SDS011;5708;50.660;6.778;2023-09-07T03:05:58;8.35;;;6.07;;
11305;SDS011;5708;50.660;6.778;2023-09-07T03:08:35;8.52;;;5.82;;
11305;SDS011;5708;50.660;6.778;2023-09-07T03:11:04;9.07;;;5.65;;
11305;SDS011;5708;50.660;6.778;2023-09-07T03:13:30;8.90;;;5.93;;
11305;SDS011;5708;50.660;6.778;2023-09-07T03:15:55;9.57;;;5.88;;
11305;SDS011;5708;50.660;6.778;2023-09-07T03:18:21;8.98;;;6.00;;
11305;SDS011;5708;50.660;6.778;2023-09-07T03:20:46;12.23;;;5.95;;
11305;SDS011;5708;50.660;6.778;2023-09-07T03:23:12;10.25;;;5.90;;
11305;SDS011;5708;50.660;6.778;2023-09-07T03:25:37;7.72;;;5.47;;
11305;SDS011;5708;50.660;6.778;2023-09-07T03:28:02;8.63;;;5.70;;
11305;SDS011;5708;50.660;6.778;2023-09-07T03:30:28;7.97;;;5.32;;
11305;SDS011;5708;50.660;6.778;2023-09-07T03:32:54;8.57;;;5.75;;
11305;SDS011;5708;50.660;6.778;2023-09-07T03:35:19;10.90;;;5.47;;
11305;SDS011;5708;50.660;6.778;2023-09-07T03:37:45;10.18;;;6.25;;
11305;SDS011;5708;50.660;6.778;2023-09-07T03:40:10;8.27;;;5.75;;
11305;SDS011;5708;50.660;6.778;2023-09-07T03:42:35;11.65;;;6.68;;
11305;SDS011;5708;50.660;6.778;2023-09-07T03:45:01;9.35;;;6.25;;
11305;SDS011;5708;50.660;6.778;2023-09-07T03:47:28;10.18;;;6.00;;
11305;SDS011;5708;50.660;6.778;2023-09-07T03:49:54;10.25;;;5.68;;
11305;SDS011;5708;50.660;6.778;2023-09-07T03:52:20;10.48;;;5.82;;
11305;SDS011;5708;50.660;6.778;2023-09-07T03:54:49;8.77;;;5.70;;
11305;SDS011;5708;50.660;6.778;2023-09-07T03:57:14;10.68;;;6.38;;
11305;SDS011;5708;50.660;6.778;2023-09-07T03:59:39;8.52;;;5.85;;
11305;SDS011;5708;50.660;6.778;2023-09-07T04:02:05;10.40;;;6.38;;
11305;SDS011;5708;50.660;6.778;2023-09-07T04:04:30;9.27;;;5.93;;
11305;SDS011;5708;50.660;6.778;2023-09-07T04:06:55;8.48;;;5.90;;
11305;SDS011;5708;50.660;6.778;2023-09-07T04:09:21;7.40;;;5.30;;
11305;SDS011;5708;50.660;6.778;2023-09-07T04:11:46;11.10;;;6.25;;
11305;SDS011;5708;50.660;6.778;2023-09-07T04:14:11;10.65;;;6.55;;
11305;SDS011;5708;50.660;6.778;2023-09-07T04:16:37;10.48;;;6.03;;
11305;SDS011;5708;50.660;6.778;2023-09-07T04:19:03;9.20;;;6.00;;
11305;SDS011;5708;50.660;6.778;2023-09-07T04:21:28;8.75;;;6.00;;
11305;SDS011;5708;50.660;6.778;2023-09-07T04:23:53;8.13;;;5.65;;
11305;SDS011;5708;50.660;6.778;2023-09-07T04:26:19;8.77;;;5.72;;
11305;SDS011;5708;50.660;6.778;2023-09-07T04:28:44;10.15;;;6.18;;
11305;SDS011;5708;50.660;6.778;2023-09-07T04:31:09;8.35;;;5.85;;
11305;SDS011;5708;50.660;6.778;2023-09-07T04:33:35;9.93;;;6.38;;
11305;SDS011;5708;50.660;6.778;2023-09-07T04:36:07;9.02;;;5.82;;
11305;SDS011;5708;50.660;6.778;2023-09-07T04:38:33;10.05;;;6.00;;
11305;SDS011;5708;50.660;6.778;2023-09-07T04:41:08;10.60;;;6.03;;
11305;SDS011;5708;50.660;6.778;2023-09-07T04:43:35;10.65;;;5.95;;
11305;SDS011;5708;50.660;6.778;2023-09-07T04:46:00;8.75;;;6.13;;
11305;SDS011;5708;50.660;6.778;2023-09-07T04:48:26;8.70;;;6.05;;
11305;SDS011;5708;50.660;6.778;2023-09-07T04:51:01;9.18;;;5.97;;
11305;SDS011;5708;50.660;6.778;2023-09-07T04:53:28;9.63;;;5.85;;
11305;SDS011;5708;50.660;6.778;2023-09-07T04:55:54;8.35;;;5.90;;
11305;SDS011;5708;50.660;6.778;2023-09-07T04:58:20;11.70;;;5.90;;
11305;SDS011;5708;50.660;6.778;2023-09-07T05:00:45;12.65;;;5.80;;
11305;SDS011;5708;50.660;6.778;2023-09-07T05:03:10;8.40;;;5.72;;
11305;SDS011;5708;50.660;6.778;2023-09-07T05:05:37;8.85;;;5.95;;
11305;SDS011;5708;50.660;6.778;2023-09-07T05:08:03;10.38;;;6.45;;
11305;SDS011;5708;50.660;6.778;2023-09-07T05:10:30;11.25;;;5.97;;
11305;SDS011;5708;50.660;6.778;2023-09-07T05:12:57;10.88;;;6.40;;
11305;SDS011;5708;50.660;6.778;2023-09-07T05:15:22;9.07;;;5.93;;
11305;SDS011;5708;50.660;6.778;2023-09-07T05:17:48;8.63;;;5.72;;
11305;SDS011;5708;50.660;6.778;2023-09-07T05:20:13;9.05;;;6.40;;
11305;SDS011;5708;50.660;6.778;2023-09-07T05:22:38;10.02;;;6.57;;
11305;SDS011;5708;50.660;6.778;2023-09-07T05:25:06;9.00;;;6.20;;
11305;SDS011;5708;50.660;6.778;2023-09-07T05:27:31;9.95;;;5.90;;
11305;SDS011;5708;50.660;6.778;2023-09-07T05:29:56;9.40;;;6.05;;
11305;SDS011;5708;50.660;6.778;2023-09-07T05:32:22;10.15;;;7.03;;
11305;SDS011;5708;50.660;6.778;2023-09-07T05:34:47;10.00;;;6.22;;
11305;SDS011;5708;50.660;6.778;2023-09-07T05:37:12;10.35;;;6.70;;
11305;SDS011;5708;50.660;6.778;2023-09-07T05:39:38;10.00;;;6.20;;
11305;SDS011;5708;50.660;6.778;2023-09-07T05:42:03;8.80;;;6.00;;
11305;SDS011;5708;50.660;6.778;2023-09-07T05:44:29;8.80;;;6.32;;
11305;SDS011;5708;50.660;6.778;2023-09-07T05:46:54;9.55;;;5.70;;
11305;SDS011;5708;50.660;6.778;2023-09-07T05:49:19;8.15;;;5.50;;
11305;SDS011;5708;50.660;6.778;2023-09-07T05:51:44;10.63;;;6.53;;
11305;SDS011;5708;50.660;6.778;2023-09-07T05:54:10;11.25;;;6.75;;
11305;SDS011;5708;50.660;6.778;2023-09-07T05:56:35;9.75;;;6.03;;
11305;SDS011;5708;50.660;6.778;2023-09-07T05:59:00;10.00;;;6.30;;
11305;SDS011;5708;50.660;6.778;2023-09-07T06:01:26;11.63;;;6.82;;
11305;SDS011;5708;50.660;6.778;2023-09-07T06:03:51;10.73;;;6.63;;
11305;SDS011;5708;50.660;6.778;2023-09-07T06:06:16;9.63;;;6.60;;
11305;SDS011;5708;50.660;6.778;2023-09-07T06:08:42;8.88;;;6.45;;
11305;SDS011;5708;50.660;6.778;2023-09-07T06:11:07;14.23;;;7.45;;
11305;SDS011;5708;50.660;6.778;2023-09-07T06:13:32;13.75;;;7.00;;
11305;SDS011;5708;50.660;6.778;2023-09-07T06:15:58;9.88;;;6.28;;
11305;SDS011;5708;50.660;6.778;2023-09-07T06:18:25;16.63;;;6.43;;
11305;SDS011;5708;50.660;6.778;2023-09-07T06:20:50;15.45;;;6.60;;
11305;SDS011;5708;50.660;6.778;2023-09-07T06:23:16;16.13;;;6.20;;
11305;SDS011;5708;50.660;6.778;2023-09-07T06:25:41;14.60;;;5.78;;
11305;SDS011;5708;50.660;6.778;2023-09-07T06:28:06;11.75;;;5.32;;
11305;SDS011;5708;50.660;6.778;2023-09-07T06:30:32;11.70;;;5.70;;
11305;SDS011;5708;50.660;6.778;2023-09-07T06:32:57;11.95;;;5.15;;
11305;SDS011;5708;50.660;6.778;2023-09-07T06:35:22;11.73;;;4.95;;
11305;SDS011;5708;50.660;6.778;2023-09-07T06:37:48;16.15;;;5.28;;
11305;SDS011;5708;50.660;6.778;2023-09-07T06:40:13;14.77;;;5.40;;
11305;SDS011;5708;50.660;6.778;2023-09-07T06:42:40;17.90;;;5.72;;
11305;SDS011;5708;50.660;6.778;2023-09-07T06:45:05;14.90;;;6.63;;
11305;SDS011;5708;50.660;6.778;2023-09-07T06:47:32;13.90;;;5.30;;
11305;SDS011;5708;50.660;6.778;2023-09-07T06:49:57;11.98;;;5.15;;
11305;SDS011;5708;50.660;6.778;2023-09-07T06:52:22;15.02;;;4.97;;
11305;SDS011;5708;50.660;6.778;2023-09-07T06:54:50;13.20;;;5.43;;
11305;SDS011;5708;50.660;6.778;2023-09-07T06:57:17;17.10;;;5.72;;
11305;SDS011;5708;50.660;6.778;2023-09-07T06:59:42;16.10;;;5.95;;
11305;SDS011;5708;50.660;6.778;2023-09-07T07:02:08;11.90;;;5.65;;
11305;SDS011;5708;50.660;6.778;2023-09-07T07:04:33;11.82;;;5.30;;
11305;SDS011;5708;50.660;6.778;2023-09-07T07:07:03;10.48;;;5.00;;
11305;SDS011;5708;50.660;6.778;2023-09-07T07:09:32;10.98;;;4.95;;
11305;SDS011;5708;50.660;6.778;2023-09-07T07:11:59;9.70;;;5.15;;
11305;SDS011;5708;50.660;6.778;2023-09-07T07:14:26;10.38;;;4.80;;
11305;SDS011;5708;50.660;6.778;2023-09-07T07:16:51;8.15;;;4.63;;
11305;SDS011;5708;50.660;6.778;2023-09-07T07:19:17;8.30;;;4.78;;
11305;SDS011;5708;50.660;6.778;2023-09-07T07:21:42;9.30;;;4.88;;
11305;SDS011;5708;50.660;6.778;2023-09-07T07:24:07;7.95;;;4.97;;
11305;SDS011;5708;50.660;6.778;2023-09-07T07:26:33;8.88;;;4.60;;
11305;SDS011;5708;50.660;6.778;2023-09-07T07:28:58;11.77;;;4.90;;
11305;SDS011;5708;50.660;6.778;2023-09-07T07:31:24;9.15;;;4.85;;
11305;SDS011;5708;50.660;6.778;2023-09-07T07:33:49;10.20;;;4.60;;
11305;SDS011;5708;50.660;6.778;2023-09-07T07:36:15;10.65;;;4.57;;
11305;SDS011;5708;50.660;6.778;2023-09-07T07:38:40;8.43;;;4.30;;
11305;SDS011;5708;50.660;6.778;2023-09-07T07:41:05;7.60;;;4.90;;
11305;SDS011;5708;50.660;6.778;2023-09-07T07:43:32;10.45;;;4.57;;
11305;SDS011;5708;50.660;6.778;2023-09-07T07:45:57;9.20;;;4.18;;
11305;SDS011;5708;50.660;6.778;2023-09-07T07:48:23;9.25;;;4.60;;
11305;SDS011;5708;50.660;6.778;2023-09-07T07:50:48;8.93;;;4.72;;
11305;SDS011;5708;50.660;6.778;2023-09-07T07:53:13;9.65;;;4.22;;
11305;SDS011;5708;50.660;6.778;2023-09-07T07:55:39;8.52;;;4.45;;
11305;SDS011;5708;50.660;6.778;2023-09-07T07:58:09;8.60;;;4.00;;
11305;SDS011;5708;50.660;6.778;2023-09-07T08:00:35;9.68;;;3.65;;
11305;SDS011;5708;50.660;6.778;2023-09-07T08:03:03;6.35;;;3.70;;
11305;SDS011;5708;50.660;6.778;2023-09-07T08:05:31;9.10;;;4.07;;
11305;SDS011;5708;50.660;6.778;2023-09-07T08:07:56;12.30;;;4.20;;
11305;SDS011;5708;50.660;6.778;2023-09-07T08:10:22;11.98;;;4.20;;
11305;SDS011;5708;50.660;6.778;2023-09-07T08:12:47;8.60;;;3.78;;
11305;SDS011;5708;50.660;6.778;2023-09-07T08:15:12;6.82;;;3.92;;
11305;SDS011;5708;50.660;6.778;2023-09-07T08:17:39;9.40;;;3.67;;
11305;SDS011;5708;50.660;6.778;2023-09-07T08:20:05;6.50;;;3.80;;
11305;SDS011;5708;50.660;6.778;2023-09-07T08:22:32;5.10;;;3.40;;
11305;SDS011;5708;50.660;6.778;2023-09-07T08:25:00;7.05;;;3.65;;
11305;SDS011;5708;50.660;6.778;2023-09-07T08:27:25;7.30;;;3.55;;
11305;SDS011;5708;50.660;6.778;2023-09-07T08:29:51;6.60;;;3.63;;
11305;SDS011;5708;50.660;6.778;2023-09-07T08:32:18;7.00;;;3.70;;
11305;SDS011;5708;50.660;6.778;2023-09-07T08:34:43;7.68;;;3.60;;
11305;SDS011;5708;50.660;6.778;2023-09-07T08:37:09;8.00;;;3.80;;
11305;SDS011;5708;50.660;6.778;2023-09-07T08:39:34;8.18;;;3.70;;
11305;SDS011;5708;50.660;6.778;2023-09-07T08:42:01;8.27;;;3.47;;
11305;SDS011;5708;50.660;6.778;2023-09-07T08:44:26;7.90;;;3.55;;
11305;SDS011;5708;50.660;6.778;2023-09-07T08:46:52;8.25;;;3.28;;
11305;SDS011;5708;50.660;6.778;2023-09-07T08:49:18;7.22;;;3.20;;
11305;SDS011;5708;50.660;6.778;2023-09-07T08:51:48;11.55;;;4.10;;
11305;SDS011;5708;50.660;6.778;2023-09-07T08:54:13;8.35;;;3.45;;
11305;SDS011;5708;50.660;6.778;2023-09-07T08:56:39;7.40;;;3.55;;
11305;SDS011;5708;50.660;6.778;2023-09-07T08:59:04;8.00;;;3.63;;
11305;SDS011;5708;50.660;6.778;2023-09-07T09:01:30;8.57;;;3.58;;
11305;SDS011;5708;50.660;6.778;2023-09-07T09:03:56;8.27;;;3.25;;
11305;SDS011;5708;50.660;6.778;2023-09-07T09:06:22;5.93;;;3.30;;
11305;SDS011;5708;50.660;6.778;2023-09-07T09:08:48;6.28;;;3.78;;
11305;SDS011;5708;50.660;6.778;2023-09-07T09:11:15;9.02;;;3.40;;
11305;SDS011;5708;50.660;6.778;2023-09-07T09:13:41;5.70;;;3.03;;
11305;SDS011;5708;50.660;6.778;2023-09-07T09:16:07;5.20;;;3.28;;
11305;SDS011;5708;50.660;6.778;2023-09-07T09:18:32;6.00;;;3.70;;
11305;SDS011;5708;50.660;6.778;2023-09-07T09:20:58;6.82;;;3.40;;
11305;SDS011;5708;50.660;6.778;2023-09-07T09:23:36;9.90;;;4.03;;
11305;SDS011;5708;50.660;6.778;2023-09-07T09:26:02;6.55;;;3.63;;
11305;SDS011;5708;50.660;6.778;2023-09-07T09:28:31;10.35;;;3.63;;
11305;SDS011;5708;50.660;6.778;2023-09-07T09:31:00;6.45;;;3.20;;
11305;SDS011;5708;50.660;6.778;2023-09-07T09:33:26;5.57;;;3.50;;
11305;SDS011;5708;50.660;6.778;2023-09-07T09:35:53;5.07;;;3.30;;
11305;SDS011;5708;50.660;6.778;2023-09-07T09:38:19;8.27;;;3.80;;
11305;SDS011;5708;50.660;6.778;2023-09-07T09:40:44;7.50;;;3.25;;
11305;SDS011;5708;50.660;6.778;2023-09-07T09:43:10;6.25;;;3.38;;
11305;SDS011;5708;50.660;6.778;2023-09-07T09:45:36;10.18;;;3.40;;
11305;SDS011;5708;50.660;6.778;2023-09-07T09:48:02;6.85;;;3.50;;
11305;SDS011;5708;50.660;6.778;2023-09-07T09:50:28;5.60;;;3.38;;
11305;SDS011;5708;50.660;6.778;2023-09-07T09:52:54;9.18;;;3.28;;
11305;SDS011;5708;50.660;6.778;2023-09-07T09:55:20;6.78;;;3.67;;
11305;SDS011;5708;50.660;6.778;2023-09-07T09:57:46;9.32;;;4.05;;
11305;SDS011;5708;50.660;6.778;2023-09-07T10:00:12;9.30;;;3.40;;
11305;SDS011;5708;50.660;6.778;2023-09-07T10:02:44;8.68;;;3.72;;
11305;SDS011;5708;50.660;6.778;2023-09-07T10:05:11;8.88;;;3.60;;
11305;SDS011;5708;50.660;6.778;2023-09-07T10:08:22;7.85;;;3.88;;
11305;SDS011;5708;50.660;6.778;2023-09-07T10:10:31;8.25;;;3.47;;
11305;SDS011;5708;50.660;6.778;2023-09-07T10:12:58;9.05;;;3.78;;
11305;SDS011;5708;50.660;6.778;2023-09-07T10:15:24;7.03;;;3.60;;
11305;SDS011;5708;50.660;6.778;2023-09-07T10:18:10;8.25;;;3.45;;
11305;SDS011;5708;50.660;6.778;2023-09-07T10:20:49;6.88;;;3.45;;
11305;SDS011;5708;50.660;6.778;2023-09-07T10:23:17;7.00;;;3.50;;
11305;SDS011;5708;50.660;6.778;2023-09-07T10:25:42;9.35;;;3.40;;
11305;SDS011;5708;50.660;6.778;2023-09-07T10:30:45;8.85;;;3.35;;
11305;SDS011;5708;50.660;6.778;2023-09-07T10:33:20;6.95;;;3.30;;
11305;SDS011;5708;50.660;6.778;2023-09-07T10:35:46;6.43;;;3.20;;
11305;SDS011;5708;50.660;6.778;2023-09-07T10:38:13;6.80;;;3.50;;
11305;SDS011;5708;50.660;6.778;2023-09-07T10:40:39;7.65;;;3.70;;
11305;SDS011;5708;50.660;6.778;2023-09-07T10:43:05;5.28;;;3.28;;
11305;SDS011;5708;50.660;6.778;2023-09-07T10:45:30;13.55;;;4.05;;
11305;SDS011;5708;50.660;6.778;2023-09-07T10:47:55;10.45;;;4.25;;
11305;SDS011;5708;50.660;6.778;2023-09-07T10:50:21;12.55;;;3.85;;
11305;SDS011;5708;50.660;6.778;2023-09-07T10:52:46;8.30;;;3.53;;
11305;SDS011;5708;50.660;6.778;2023-09-07T10:55:11;5.18;;;3.13;;
11305;SDS011;5708;50.660;6.778;2023-09-07T10:57:43;6.18;;;3.60;;
11305;SDS011;5708;50.660;6.778;2023-09-07T11:00:10;10.02;;;3.45;;
11305;SDS011;5708;50.660;6.778;2023-09-07T11:02:37;7.28;;;3.58;;
11305;SDS011;5708;50.660;6.778;2023-09-07T11:05:03;7.97;;;3.47;;
11305;SDS011;5708;50.660;6.778;2023-09-07T11:07:28;6.18;;;3.47;;
11305;SDS011;5708;50.660;6.778;2023-09-07T11:09:54;6.32;;;3.53;;
11305;SDS011;5708;50.660;6.778;2023-09-07T11:12:20;7.70;;;3.00;;
11305;SDS011;5708;50.660;6.778;2023-09-07T11:14:46;6.35;;;3.47;;
11305;SDS011;5708;50.660;6.778;2023-09-07T11:17:13;8.95;;;3.50;;
11305;SDS011;5708;50.660;6.778;2023-09-07T11:19:38;7.13;;;3.47;;
11305;SDS011;5708;50.660;6.778;2023-09-07T11:22:03;8.50;;;4.35;;
11305;SDS011;5708;50.660;6.778;2023-09-07T11:24:29;7.07;;;3.65;;
11305;SDS011;5708;50.660;6.778;2023-09-07T11:26:57;6.55;;;3.45;;
11305;SDS011;5708;50.660;6.778;2023-09-07T11:29:22;6.82;;;3.47;;
11305;SDS011;5708;50.660;6.778;2023-09-07T11:31:48;6.88;;;3.40;;
11305;SDS011;5708;50.660;6.778;2023-09-07T11:34:13;8.68;;;3.38;;
11305;SDS011;5708;50.660;6.778;2023-09-07T11:36:40;6.93;;;3.20;;
11305;SDS011;5708;50.660;6.778;2023-09-07T11:39:06;10.13;;;3.42;;
11305;SDS011;5708;50.660;6.778;2023-09-07T11:41:37;8.00;;;3.40;;
11305;SDS011;5708;50.660;6.778;2023-09-07T11:44:09;8.75;;;3.42;;
11305;SDS011;5708;50.660;6.778;2023-09-07T11:46:34;8.60;;;3.55;;
11305;SDS011;5708;50.660;6.778;2023-09-07T11:49:00;6.85;;;3.47;;
11305;SDS011;5708;50.660;6.778;2023-09-07T11:51:25;6.35;;;3.25;;
11305;SDS011;5708;50.660;6.778;2023-09-07T11:53:50;9.70;;;3.40;;
11305;SDS011;5708;50.660;6.778;2023-09-07T11:56:16;6.13;;;3.65;;
11305;SDS011;5708;50.660;6.778;2023-09-07T11:58:41;6.57;;;3.30;;
11305;SDS011;5708;50.660;6.778;2023-09-07T12:01:08;6.95;;;3.40;;
11305;SDS011;5708;50.660;6.778;2023-09-07T12:03:34;7.18;;;3.50;;
11305;SDS011;5708;50.660;6.778;2023-09-07T12:05:59;7.57;;;3.50;;
11305;SDS011;5708;50.660;6.778;2023-09-07T12:08:25;8.38;;;3.67;;
11305;SDS011;5708;50.660;6.778;2023-09-07T12:10:50;6.32;;;3.45;;
11305;SDS011;5708;50.660;6.778;2023-09-07T12:13:16;8.45;;;3.28;;
11305;SDS011;5708;50.660;6.778;2023-09-07T12:15:41;7.28;;;3.50;;
11305;SDS011;5708;50.660;6.778;2023-09-07T12:18:06;5.97;;;3.65;;
11305;SDS011;5708;50.660;6.778;2023-09-07T12:20:32;9.25;;;3.70;;
11305;SDS011;5708;50.660;6.778;2023-09-07T12:22:59;8.57;;;3.60;;
11305;SDS011;5708;50.660;6.778;2023-09-07T12:25:25;5.68;;;3.53;;
11305;SDS011;5708;50.660;6.778;2023-09-07T12:27:50;7.00;;;3.50;;
11305;SDS011;5708;50.660;6.778;2023-09-07T12:30:16;9.13;;;3.58;;
11305;SDS011;5708;50.660;6.778;2023-09-07T12:32:45;8.15;;;3.20;;
11305;SDS011;5708;50.660;6.778;2023-09-07T12:35:10;8.52;;;3.50;;
11305;SDS011;5708;50.660;6.778;2023-09-07T12:37:35;7.68;;;3.80;;
11305;SDS011;5708;50.660;6.778;2023-09-07T12:40:01;5.53;;;3.70;;
11305;SDS011;5708;50.660;6.778;2023-09-07T12:42:36;7.47;;;3.25;;
11305;SDS011;5708;50.660;6.778;2023-09-07T12:45:02;8.85;;;3.60;;
11305;SDS011;5708;50.660;6.778;2023-09-07T12:47:29;6.30;;;3.60;;
11305;SDS011;5708;50.660;6.778;2023-09-07T12:49:55;6.35;;;3.33;;
11305;SDS011;5708;50.660;6.778;2023-09-07T12:52:21;5.90;;;3.33;;
11305;SDS011;5708;50.660;6.778;2023-09-07T12:54:46;8.50;;;3.67;;
11305;SDS011;5708;50.660;6.778;2023-09-07T12:57:12;5.68;;;3.50;;
11305;SDS011;5708;50.660;6.778;2023-09-07T12:59:37;8.27;;;3.70;;
11305;SDS011;5708;50.660;6.778;2023-09-07T13:02:03;12.68;;;4.03;;
11305;SDS011;5708;50.660;6.778;2023-09-07T13:04:28;9.35;;;3.75;;
11305;SDS011;5708;50.660;6.778;2023-09-07T13:06:54;13.98;;;4.10;;
11305;SDS011;5708;50.660;6.778;2023-09-07T13:09:20;7.90;;;3.85;;
11305;SDS011;5708;50.660;6.778;2023-09-07T13:11:45;7.65;;;4.35;;
11305;SDS011;5708;50.660;6.778;2023-09-07T13:14:10;6.00;;;3.47;;
11305;SDS011;5708;50.660;6.778;2023-09-07T13:16:36;7.90;;;3.92;;
11305;SDS011;5708;50.660;6.778;2023-09-07T13:19:01;6.75;;;3.17;;
11305;SDS011;5708;50.660;6.778;2023-09-07T13:21:27;7.68;;;4.00;;
11305;SDS011;5708;50.660;6.778;2023-09-07T13:23:52;7.53;;;4.10;;
11305;SDS011;5708;50.660;6.778;2023-09-07T13:26:17;6.40;;;3.58;;
11305;SDS011;5708;50.660;6.778;2023-09-07T13:28:42;9.48;;;4.30;;
11305;SDS011;5708;50.660;6.778;2023-09-07T13:31:08;12.15;;;3.80;;
11305;SDS011;5708;50.660;6.778;2023-09-07T13:33:33;9.02;;;3.88;;
11305;SDS011;5708;50.660;6.778;2023-09-07T13:35:58;9.48;;;4.18;;
11305;SDS011;5708;50.660;6.778;2023-09-07T13:38:24;8.13;;;4.13;;
11305;SDS011;5708;50.660;6.778;2023-09-07T13:40:49;15.57;;;3.95;;
11305;SDS011;5708;50.660;6.778;2023-09-07T13:43:14;10.60;;;3.72;;
11305;SDS011;5708;50.660;6.778;2023-09-07T13:45:40;10.13;;;4.07;;
11305;SDS011;5708;50.660;6.778;2023-09-07T13:48:05;7.88;;;3.35;;
11305;SDS011;5708;50.660;6.778;2023-09-07T13:50:31;8.60;;;3.53;;
11305;SDS011;5708;50.660;6.778;2023-09-07T13:52:56;6.72;;;3.65;;
11305;SDS011;5708;50.660;6.778;2023-09-07T13:55:21;7.00;;;3.53;;
11305;SDS011;5708;50.660;6.778;2023-09-07T13:57:47;8.23;;;3.75;;
11305;SDS011;5708;50.660;6.778;2023-09-07T14:00:13;9.27;;;3.80;;
11305;SDS011;5708;50.660;6.778;2023-09-07T14:02:38;8.18;;;4.32;;
11305;SDS011;5708;50.660;6.778;2023-09-07T14:05:04;8.07;;;3.50;;
11305;SDS011;5708;50.660;6.778;2023-09-07T14:07:29;7.68;;;4.00;;
11305;SDS011;5708;50.660;6.778;2023-09-07T14:09:55;9.40;;;3.90;;
11305;SDS011;5708;50.660;6.778;2023-09-07T14:12:20;6.05;;;3.60;;
11305;SDS011;5708;50.660;6.778;2023-09-07T14:14:46;7.65;;;3.58;;
11305;SDS011;5708;50.660;6.778;2023-09-07T14:17:12;9.85;;;3.95;;
11305;SDS011;5708;50.660;6.778;2023-09-07T14:19:37;9.70;;;3.75;;
11305;SDS011;5708;50.660;6.778;2023-09-07T14:22:03;10.77;;;3.90;;
11305;SDS011;5708;50.660;6.778;2023-09-07T14:24:28;10.80;;;3.90;;
11305;SDS011;5708;50.660;6.778;2023-09-07T14:26:53;6.53;;;3.60;;
11305;SDS011;5708;50.660;6.778;2023-09-07T14:29:19;9.27;;;3.63;;
11305;SDS011;5708;50.660;6.778;2023-09-07T14:31:44;14.07;;;3.72;;
11305;SDS011;5708;50.660;6.778;2023-09-07T14:34:10;7.22;;;3.88;;
11305;SDS011;5708;50.660;6.778;2023-09-07T14:36:36;7.45;;;3.70;;
11305;SDS011;5708;50.660;6.778;2023-09-07T14:39:02;10.05;;;4.20;;
11305;SDS011;5708;50.660;6.778;2023-09-07T14:41:28;11.77;;;4.10;;
11305;SDS011;5708;50.660;6.778;2023-09-07T14:43:55;7.05;;;3.90;;
11305;SDS011;5708;50.660;6.778;2023-09-07T14:46:20;8.68;;;3.90;;
11305;SDS011;5708;50.660;6.778;2023-09-07T14:48:47;8.35;;;3.50;;
11305;SDS011;5708;50.660;6.778;2023-09-07T14:51:14;10.65;;;3.95;;
11305;SDS011;5708;50.660;6.778;2023-09-07T14:53:39;9.43;;;4.15;;